x

Fairweather Ground 105nm West Of Juno, Ak (46083) Wave Buoy

8:50pm - Sun 22nd Oct 2017 All times are AKDT. -8 hours from GMT.

  • Sig Wave height 6.6ft
  • Swell Direction
  • Peak Period 11s
  • Average Period 7s
  • Wind
    22mph, 25mph gusts
  • Sea Temp 50°f
  • Air Temp 48°f
  • Sea Pressure 1006.9mb
  • Fairweather Ground 105nm West  Of Juno, Ak
  • Fairweather Ground 105nm West  Of Juno, Ak

More Historic Weather Station data

Upgrade to MSW Pro to gain access to the past 30 days of data for over 8000 Wavebouys and Weather Stations around the globe.

Join

Comparision Forecast

View Surf forecast
   
Sun 10/22 8:50pm 6.5ft 11s 7s 22 25 mph 1006.9mb 50f 48f
7:50pm 6ft 11s 7s 20 27 mph 1005.5mb 50f 48f
6:50pm 7ft 11s 8s 18 22 mph 1005.3mb 50f 48f
5:50pm 6ft 11s 8s 13 16 mph 1004.4mb 50f 48f
4:50pm 7ft 10s 8s 13 16 mph 1003.6mb 50f 48f
3:50pm 7ft 11s 8s 9 11 mph 1002.7mb 50f 48f
2:50pm 7ft 8s 8s 11 13 mph 1001.6mb 50f 47f
1:50pm 7ft 9s 8s 9 11 mph 1000.6mb 50f 47f
12:50pm 8ft 10s 8s 7 9 mph 999.4mb 50f 46f
11:50am 7ft 10s 8s 7 7 mph 998.4mb 50f 46f
10:50am 7ft 10s 8s 4 7 mph 997.2mb 50f 47f
9:50am 7ft 10s 8s 4 7 mph 995.9mb 50f 46f
8:50am 6ft 10s 7s 4 4 mph 994.5mb 50f 46f
7:50am 7ft 11s 8s 4 7 mph 993.1mb 49f 45f
6:50am 8ft 10s 8s 4 7 mph 991.8mb 50f 45f
5:50am 8ft 10s 8s 4 9 mph 990.5mb 49f 46f
4:50am 7.5ft 11s 8s 4 9 mph 989.1mb 49f 45f
3:50am 7.5ft 10s 8s 9 11 mph 987.8mb 49f 45f
2:50am 8ft 11s 8s 7 11 mph 986.7mb 49f 45f
1:50am 7.5ft 10s 8s 9 13 mph 986mb 49f 44f
12:50am 6.5ft 10s 8s 11 13 mph 985.1mb 49f 44f
Sat 10/21 11:50pm 7ft 10s 8s 11 13 mph 984.3mb 49f 45f
10:50pm 6.5ft 11s 7s 13 18 mph 983.5mb 50f 44f
9:50pm 7.5ft 10s 6s 18 25 mph 983.1mb 50f 44f
8:50pm 6ft 10s 6s 25 31 mph 981.7mb 50f 46f
7:50pm 6ft 8s 6s 7 11 mph 981.7mb 51f 48f
6:50pm 6ft 8s 6s 4 4 mph 981.9mb 51f 47f
5:50pm 6ft 8s 6s 9 11 mph 981.8mb 51f 46f
4:50pm 6ft 5s 5s 9 13 mph 981.7mb 51f 47f
3:50pm 6ft 6s 6s 4 11 mph 981.9mb 51f 48f
2:50pm 6ft 6s 5s 11 16 mph 982mb 51f 48f
1:50pm 6.5ft 7s 5s 11 18 mph 982.7mb 51f 48f
12:50pm 8ft 6s 6s 25 31 mph 982.8mb 51f 49f
11:50am 8ft 6s 5s 31 40 mph 983.1mb 50f 47f
10:50am 9ft 6s 6s 34 40 mph 984.4mb 50f 46f
9:50am 8.5ft 6s 6s 31 38 mph 985.8mb 50f 46f
8:50am 8ft 6s 6s 31 38 mph 986.7mb 50f 45f
7:50am 8ft 11s 6s 27 34 mph 987.8mb 50f 45f
6:50am 7.5ft 10s 6s 25 31 mph 989.3mb 50f 42f
5:50am 9ft 11s 6s 27 31 mph 990.1mb 50f 42f
4:50am 7.5ft 11s 6s 27 31 mph 990.9mb 50f 43f
3:50am 7ft 11s 6s 25 31 mph 991.6mb 50f 42f
2:50am 8ft 11s 6s 25 29 mph 992.4mb 50f 40f
1:50am 8ft 11s 6s 18 29 mph 992.7mb 51f 43f
12:50am 8ft 10s 7s 22 27 mph 992.8mb 50f 44f
Fri 10/20 11:50pm 8ft 11s 8s 13 22 mph 993.6mb 50f 44f
10:50pm 7.5ft 11s 7s 11 16 mph 993.8mb 50f 43f
9:50pm 9ft 11s 8s 9 13 mph 994.5mb 50f 40f
8:50pm 9ft 11s 8s 16 20 mph 994.3mb 50f 41f
7:50pm 10.5ft 11s 8s 13 16 mph 994.1mb 50f 45f
6:50pm 9ft 11s 8s 11 13 mph 994.1mb 50f 44f
5:50pm 9ft 11s 9s 4 11 mph 993.9mb 50f 43f
4:50pm 9.5ft 12s 9s 9 16 mph 993.8mb 50f 44f
3:50pm 9ft 11s 9s 7 11 mph 993.6mb 50f 44f
2:50pm 9ft 11s 8s 9 11 mph 993.2mb 50f 44f
1:50pm 9.5ft 12s 9s 11 22 mph 992.9mb 50f 43f
12:50pm 9ft 12s 9s 7 11 mph 992.7mb 50f 43f
11:50am 9ft 11s 9s 9 11 mph 992mb 50f 42f
10:50am 8.5ft 12s 8s 7 9 mph 991.6mb 50f 44f
9:50am 8ft 11s 8s 7 11 mph 991mb 50f 44f
8:50am 9.5ft 11s 8s 9 13 mph 990.4mb 50f 44f
7:50am 9ft 11s 8s 9 11 mph 990mb 50f 42f
6:50am 10ft 11s 9s 9 11 mph 989.3mb 50f 44f
5:50am 9.5ft 11s 8s 7 9 mph 988.9mb 50f 44f
4:50am 10ft 11s 9s 18 22 mph 988.2mb 50f 43f
3:50am 10ft 12s 8s 9 13 mph 987.7mb 50f 45f
2:50am 10ft 13s 8s 11 16 mph 987.4mb 50f 45f
1:50am 10ft 12s 8s 16 18 mph 986.8mb 49f 45f
12:50am 9.5ft 13s 8s 16 20 mph 986.1mb 49f 45f
Thu 10/19 11:50pm 10ft 12s 8s 18 22 mph 985.3mb 49f 46f
10:50pm 9ft 13s 9s 11 16 mph 984.9mb 49f 44f
9:50pm 11ft 14s 10s 4 9 mph 984.3mb 49f 44f
8:50pm 10.5ft 12s 9s 4 7 mph 983.9mb 49f 43f
7:50pm 9.5ft 13s 9s 13 18 mph 983.3mb 49f 44f
6:50pm 9.5ft 15s 9s 11 13 mph 982mb 49f 48f
5:50pm 9.5ft 14s 9s 13 16 mph 981.5mb 49f 48f
4:50pm 9ft 14s  -  16 20 mph 981.1mb 49f 48f
3:50pm 10ft 14s 9s 13 16 mph 980.8mb 49f 48f
2:50pm 9.5ft 15s 9s 13 16 mph 980.5mb 49f 48f
1:50pm 10ft 16s 9s 16 18 mph 980.2mb 49f 48f
12:50pm 12ft 13s 10s 16 18 mph 979.9mb 49f 49f
11:50am 11ft 13s 9s 16 18 mph 979.6mb 49f 49f
10:50am 12.5ft 10s 10s 13 18 mph 979.1mb 50f 48f
9:50am 15ft 13s 11s 13 16 mph 978.8mb 50f 48f
8:50am 12ft 15s 11s 9 11 mph 978.6mb 50f 48f
7:50am 13ft 15s 11s 9 11 mph 978.3mb 50f 48f
6:50am 10.5ft 15s 10s 4 7 mph 978.1mb 50f 48f